Time;durP1;ratioP1;P1;durP2;ratioP2;P2;SDS_P1;SDS_P2;PMS_P1;PMS_P2;Temp;Humidity;BMP_temperature;BMP_pressure;BME280_temperature;BME280_humidity;BME280_pressure;Samples;Min_cycle;Max_cycle;Signal;HPM_P1;HPM_P2
2023/11/07 00:00:39;;;;;;;3.60;1.15;;;;;;;6.09;100.00;96449.69;5041513;28;20047;-69
2023/11/07 00:03:04;;;;;;;0.95;0.85;;;;;;;6.17;100.00;96445.22;5036577;28;20041;-70
2023/11/07 00:05:30;;;;;;;1.67;1.10;;;;;;;6.01;100.00;96438.94;5031690;28;20066;-68
2023/11/07 00:07:55;;;;;;;2.90;0.93;;;;;;;5.80;100.00;96447.19;5041783;28;20060;-69
2023/11/07 00:10:21;;;;;;;1.08;0.80;;;;;;;5.86;100.00;96434.97;5036098;28;20717;-68
2023/11/07 00:12:49;;;;;;;0.98;0.88;;;;;;;5.67;100.00;96433.63;5040858;28;20458;-67
2023/11/07 00:15:14;;;;;;;1.77;0.90;;;;;;;5.35;100.00;96443.47;5036971;28;20175;-67
2023/11/07 00:17:40;;;;;;;1.33;0.90;;;;;;;5.32;100.00;96439.50;5041386;28;20068;-70
2023/11/07 00:20:08;;;;;;;1.45;0.90;;;;;;;5.23;100.00;96443.47;5036749;28;20045;-67
2023/11/07 00:22:33;;;;;;;3.25;1.30;;;;;;;5.10;100.00;96437.22;5041844;28;20056;-67
2023/11/07 00:24:58;;;;;;;1.13;0.90;;;;;;;5.05;100.00;96434.72;5041023;28;20136;-70
2023/11/07 00:27:24;;;;;;;1.90;1.23;;;;;;;4.94;100.00;96437.09;5036758;28;20260;-69
2023/11/07 00:29:49;;;;;;;2.08;1.20;;;;;;;4.84;100.00;96432.88;5051089;28;20045;-68
2023/11/07 00:32:15;;;;;;;3.85;1.88;;;;;;;4.82;100.00;96428.91;5035737;28;20052;-68
2023/11/07 00:34:40;;;;;;;3.95;1.80;;;;;;;4.79;100.00;96431.19;5044304;28;20040;-67
2023/11/07 00:37:06;;;;;;;2.25;1.48;;;;;;;4.82;100.00;96432.41;5036126;28;20139;-68
2023/11/07 00:39:31;;;;;;;3.05;1.15;;;;;;;4.91;100.00;96445.91;5040893;28;20044;-68
2023/11/07 00:41:57;;;;;;;2.22;1.00;;;;;;;4.95;100.00;96431.34;5041074;28;20094;-67
2023/11/07 00:44:23;;;;;;;3.65;1.40;;;;;;;4.89;100.00;96429.16;5036045;28;20380;-68
2023/11/07 00:46:48;;;;;;;1.92;1.20;;;;;;;4.86;100.00;96437.97;5040930;28;20040;-69
2023/11/07 00:49:14;;;;;;;1.35;1.00;;;;;;;4.74;100.00;96430.59;5019327;28;20044;-68
2023/11/07 00:51:39;;;;;;;1.83;1.13;;;;;;;4.70;100.00;96435.09;5041117;28;20415;-69
2023/11/07 00:54:05;;;;;;;2.15;1.20;;;;;;;4.64;100.00;96439.94;5029214;28;20051;-69
2023/11/07 00:56:31;;;;;;;2.20;1.60;;;;;;;4.54;100.00;96441.16;5041160;28;20127;-68
2023/11/07 00:58:57;;;;;;;1.80;1.33;;;;;;;4.51;100.00;96441.81;5040148;28;20583;-69
2023/11/07 01:01:22;;;;;;;4.13;2.03;;;;;;;4.58;100.00;96436.66;5037397;28;20052;-69
2023/11/07 01:03:47;;;;;;;6.05;1.83;;;;;;;4.62;100.00;96449.53;5043347;28;20044;-69
2023/11/07 01:06:13;;;;;;;2.08;1.23;;;;;;;4.68;100.00;96438.16;5034993;28;20141;-69
2023/11/07 01:08:38;;;;;;;4.90;1.63;;;;;;;4.43;100.00;96437.28;5038999;28;20140;-69
2023/11/07 01:11:05;;;;;;;5.30;1.30;;;;;;;4.36;100.00;96437.03;5036432;28;20052;-67
2023/11/07 01:13:30;;;;;;;2.40;1.45;;;;;;;4.45;100.00;96445.88;5045964;28;20045;-69
2023/11/07 01:15:56;;;;;;;2.30;1.70;;;;;;;4.57;100.00;96442.41;5047039;28;20047;-69
2023/11/07 01:18:22;;;;;;;1.40;1.23;;;;;;;4.73;100.00;96431.72;5041704;28;21424;-69
2023/11/07 01:20:47;;;;;;;2.63;1.30;;;;;;;4.82;100.00;96426.97;5042195;28;20055;-69
2023/11/07 01:23:13;;;;;;;4.95;2.35;;;;;;;4.85;100.00;96429.03;5030541;28;20461;-69
2023/11/07 01:25:39;;;;;;;4.47;2.58;;;;;;;4.86;100.00;96424.41;5047189;28;20055;-69
2023/11/07 01:28:05;;;;;;;4.80;1.48;;;;;;;4.84;100.00;96424.72;5041608;28;20041;-70
2023/11/07 01:30:31;;;;;;;2.42;1.08;;;;;;;4.82;100.00;96428.91;5038542;28;20372;-70
2023/11/07 01:32:57;;;;;;;1.75;1.17;;;;;;;4.78;100.00;96434.22;5047465;28;20504;-69
2023/11/07 01:35:22;;;;;;;2.88;1.40;;;;;;;4.81;100.00;96428.13;5035516;28;20079;-69
2023/11/07 01:37:48;;;;;;;2.05;1.20;;;;;;;4.92;100.00;96433.91;5060170;28;20044;-68
2023/11/07 01:40:13;;;;;;;5.78;1.63;;;;;;;5.02;100.00;96428.03;5033669;28;20040;-69
2023/11/07 01:42:46;;;;;;;2.75;1.40;;;;;;;5.13;100.00;96425.69;5047487;28;20128;-69
2023/11/07 01:45:12;;;;;;;3.90;1.10;;;;;;;5.20;100.00;96414.28;5035270;28;20037;-70
2023/11/07 01:47:39;;;;;;;2.38;1.30;;;;;;;5.28;100.00;96424.25;5039937;28;20548;-69
2023/11/07 01:50:14;;;;;;;5.15;1.30;;;;;;;5.27;100.00;96418.00;5041905;28;20037;-69
2023/11/07 01:52:40;;;;;;;1.40;1.10;;;;;;;5.25;100.00;96414.84;5047221;28;20049;-69
2023/11/07 01:55:16;;;;;;;1.95;0.98;;;;;;;5.22;100.00;96412.81;5040893;28;20041;-67
2023/11/07 01:57:44;;;;;;;1.17;0.95;;;;;;;5.03;100.00;96415.28;5052263;28;20458;-69
2023/11/07 02:00:13;;;;;;;1.85;1.10;;;;;;;4.94;100.00;96410.72;5041087;28;20053;-70
2023/11/07 02:02:40;;;;;;;1.83;1.30;;;;;;;4.92;100.00;96414.94;5047758;28;20095;-69
2023/11/07 02:05:06;;;;;;;2.33;1.30;;;;;;;4.93;100.00;96411.88;5040701;28;20447;-69
2023/11/07 02:07:32;;;;;;;1.75;1.20;;;;;;;4.97;100.00;96406.56;5049324;28;20049;-69
2023/11/07 02:09:58;;;;;;;4.18;1.13;;;;;;;5.03;100.00;96416.06;5043148;28;20094;-68
2023/11/07 02:12:23;;;;;;;2.97;1.08;;;;;;;5.02;100.00;96411.75;5041964;28;20358;-68
2023/11/07 02:14:49;;;;;;;3.25;1.13;;;;;;;5.15;100.00;96409.88;5046343;28;20041;-68
2023/11/07 02:17:14;;;;;;;3.88;1.13;;;;;;;5.33;100.00;96408.50;5040209;28;20044;-68
2023/11/07 02:19:40;;;;;;;1.35;1.02;;;;;;;5.32;100.00;96417.78;5030898;28;20033;-68
2023/11/07 02:22:10;;;;;;;1.20;0.95;;;;;;;5.11;100.00;96407.03;5033458;28;20041;-67
2023/11/07 02:24:35;;;;;;;2.00;1.35;;;;;;;5.11;100.00;96411.66;5044354;28;20368;-67
2023/11/07 02:27:01;;;;;;;1.17;0.90;;;;;;;5.08;100.00;96407.72;5043667;28;20048;-69
2023/11/07 02:29:28;;;;;;;1.75;0.90;;;;;;;5.13;100.00;96410.22;5038443;28;20654;-67
2023/11/07 02:31:53;;;;;;;1.15;0.98;;;;;;;5.32;100.00;96408.84;5043480;28;20037;-69
2023/11/07 02:34:19;;;;;;;1.38;1.10;;;;;;;5.45;100.00;96402.28;5038776;28;20567;-70
2023/11/07 02:36:44;;;;;;;1.30;0.90;;;;;;;5.39;100.00;96403.66;5043430;28;20084;-69
2023/11/07 02:39:12;;;;;;;1.27;0.90;;;;;;;5.31;100.00;96404.53;5044372;28;20053;-69
2023/11/07 02:41:41;;;;;;;2.30;1.08;;;;;;;5.39;100.00;96400.16;5051885;28;20049;-69
2023/11/07 02:44:09;;;;;;;3.00;1.00;;;;;;;5.63;100.00;96404.75;5040398;28;20052;-69
2023/11/07 02:46:35;;;;;;;1.90;1.10;;;;;;;5.82;100.00;96401.47;5043649;28;20056;-68
2023/11/07 02:49:00;;;;;;;1.00;0.90;;;;;;;5.89;100.00;96405.16;5043149;28;20131;-68
2023/11/07 02:51:26;;;;;;;1.42;1.00;;;;;;;5.91;100.00;96410.28;5037972;28;20187;-68
2023/11/07 02:53:52;;;;;;;1.98;1.30;;;;;;;5.78;100.00;96411.41;5042816;28;20045;-68
2023/11/07 02:56:18;;;;;;;1.85;1.00;;;;;;;5.88;100.00;96402.78;5037642;28;20064;-68
2023/11/07 02:58:44;;;;;;;2.33;0.80;;;;;;;5.85;100.00;96403.47;5046216;28;20045;-68
2023/11/07 03:01:09;;;;;;;1.77;0.93;;;;;;;5.79;100.00;96404.84;5039250;28;20147;-68
2023/11/07 03:03:35;;;;;;;2.17;0.90;;;;;;;5.83;100.00;96405.75;5043164;28;20037;-69
2023/11/07 03:06:00;;;;;;;3.40;1.00;;;;;;;5.88;100.00;96409.00;5036751;28;20128;-69
2023/11/07 03:08:26;;;;;;;1.63;1.10;;;;;;;5.87;100.00;96412.06;5037961;28;20048;-69
2023/11/07 03:10:51;;;;;;;1.50;0.98;;;;;;;5.82;100.00;96413.13;5042548;28;20099;-68
2023/11/07 03:13:19;;;;;;;3.72;1.25;;;;;;;5.82;100.00;96404.19;5038592;28;20061;-68
2023/11/07 03:15:46;;;;;;;2.38;1.00;;;;;;;5.90;100.00;96414.91;5042673;28;20387;-69
2023/11/07 03:18:12;;;;;;;1.10;0.90;;;;;;;6.00;100.00;96408.25;5038198;28;20052;-69
2023/11/07 03:20:38;;;;;;;3.58;0.93;;;;;;;6.10;100.00;96413.19;5042116;28;20415;-69
2023/11/07 03:23:03;;;;;;;2.42;1.17;;;;;;;6.19;100.00;96412.25;5040312;28;20040;-68
2023/11/07 03:25:29;;;;;;;2.83;0.98;;;;;;;6.30;100.00;96411.44;5039108;28;20472;-69
2023/11/07 03:27:54;;;;;;;3.53;0.90;;;;;;;6.33;100.00;96412.66;5042544;28;20051;-70
2023/11/07 03:30:20;;;;;;;2.88;1.00;;;;;;;6.29;100.00;96415.28;5037857;28;20337;-69
2023/11/07 03:32:45;;;;;;;2.95;1.00;;;;;;;6.28;100.00;96416.44;5041990;28;20051;-70
2023/11/07 03:35:11;;;;;;;3.33;0.80;;;;;;;6.43;100.00;96423.06;5036670;28;20072;-69
2023/11/07 03:37:39;;;;;;;3.72;1.00;;;;;;;6.40;100.00;96426.47;5035315;28;20388;-69
2023/11/07 03:40:06;;;;;;;1.25;1.00;;;;;;;6.41;100.00;96422.63;5037196;28;20090;-68
2023/11/07 03:42:32;;;;;;;1.95;1.13;;;;;;;6.40;100.00;96422.97;5035326;28;20452;-69
2023/11/07 03:44:58;;;;;;;2.00;0.95;;;;;;;6.46;100.00;96419.66;5056168;28;20056;-70
2023/11/07 03:47:24;;;;;;;5.32;1.20;;;;;;;6.57;100.00;96417.22;5039459;28;20152;-69
2023/11/07 03:49:49;;;;;;;1.15;0.88;;;;;;;6.61;100.00;96420.81;5042559;28;20112;-70
2023/11/07 03:52:16;;;;;;;3.08;0.98;;;;;;;6.49;100.00;96429.03;5036083;28;20059;-69
2023/11/07 03:54:41;;;;;;;1.50;1.10;;;;;;;6.32;100.00;96430.91;5024218;28;20036;-69
2023/11/07 03:57:06;;;;;;;7.00;1.27;;;;;;;6.21;100.00;96429.81;5037038;28;20657;-68
2023/11/07 03:59:32;;;;;;;2.42;0.90;;;;;;;6.20;100.00;96428.22;5042965;28;20072;-68
2023/11/07 04:01:58;;;;;;;1.88;1.08;;;;;;;6.22;100.00;96427.88;5047358;28;20373;-68
2023/11/07 04:04:24;;;;;;;1.30;1.20;;;;;;;6.36;100.00;96435.69;5038283;28;20601;-68
2023/11/07 04:06:49;;;;;;;3.50;1.10;;;;;;;6.25;100.00;96438.88;5041359;28;20114;-68
2023/11/07 04:09:17;;;;;;;3.10;1.15;;;;;;;6.43;100.00;96441.31;5036524;28;20045;-68
2023/11/07 04:11:43;;;;;;;1.75;1.33;;;;;;;6.42;100.00;96445.16;5041333;28;20044;-68
2023/11/07 04:14:08;;;;;;;3.47;1.13;;;;;;;6.44;100.00;96445.59;5034780;28;20412;-68
2023/11/07 04:16:34;;;;;;;2.50;1.20;;;;;;;6.43;100.00;96446.75;5033869;28;20048;-68
2023/11/07 04:19:00;;;;;;;3.03;1.58;;;;;;;6.44;100.00;96451.03;5049725;28;20055;-68
2023/11/07 04:21:25;;;;;;;2.17;1.40;;;;;;;6.45;100.00;96453.44;5049734;28;20304;-67
2023/11/07 04:23:50;;;;;;;2.10;1.25;;;;;;;6.47;100.00;96453.09;5035775;28;20064;-68
2023/11/07 04:26:17;;;;;;;1.60;1.10;;;;;;;6.48;100.00;96458.19;5038086;28;20037;-68
2023/11/07 04:28:43;;;;;;;2.25;1.02;;;;;;;6.45;100.00;96447.97;5041178;28;20449;-68
2023/11/07 04:31:08;;;;;;;1.67;1.20;;;;;;;6.45;100.00;96447.19;5042007;28;20034;-69
2023/11/07 04:33:34;;;;;;;1.00;0.80;;;;;;;6.46;100.00;96452.31;5040600;28;20123;-69
2023/11/07 04:36:01;;;;;;;4.18;1.10;;;;;;;6.43;100.00;96452.97;5041492;28;20041;-69
2023/11/07 04:38:26;;;;;;;3.30;0.93;;;;;;;6.35;100.00;96443.03;5036257;28;20044;-67
2023/11/07 04:40:51;;;;;;;1.58;0.85;;;;;;;6.37;100.00;96437.25;5036807;28;20045;-68
2023/11/07 04:43:17;;;;;;;1.83;1.08;;;;;;;6.16;100.00;96440.13;5036191;28;20083;-68
2023/11/07 04:45:43;;;;;;;1.85;1.30;;;;;;;6.03;100.00;96440.19;5042361;28;20041;-68
2023/11/07 04:48:10;;;;;;;1.58;0.95;;;;;;;5.91;100.00;96437.44;5049838;28;20065;-68
2023/11/07 04:50:37;;;;;;;1.10;1.00;;;;;;;5.82;100.00;96443.00;5031748;28;20049;-69
2023/11/07 04:53:04;;;;;;;1.42;1.17;;;;;;;5.79;100.00;96442.91;5038174;28;20120;-68
2023/11/07 04:55:31;;;;;;;2.60;1.30;;;;;;;5.78;100.00;96439.41;5038201;28;20037;-68
2023/11/07 04:57:57;;;;;;;1.92;1.10;;;;;;;5.81;100.00;96441.41;5031208;28;20064;-68
2023/11/07 05:00:22;;;;;;;2.08;1.30;;;;;;;5.80;100.00;96444.47;5027593;28;20495;-68
2023/11/07 05:02:47;;;;;;;1.77;1.25;;;;;;;5.90;100.00;96439.34;5045344;28;20041;-69
2023/11/07 05:05:14;;;;;;;2.35;1.52;;;;;;;6.04;100.00;96446.41;5038507;28;20527;-68
2023/11/07 05:07:40;;;;;;;4.00;2.30;;;;;;;6.21;100.00;96443.44;5037387;28;20130;-68
2023/11/07 05:10:09;;;;;;;3.28;1.65;;;;;;;6.27;100.00;96444.75;5035103;28;20065;-67
2023/11/07 05:12:36;;;;;;;1.50;1.10;;;;;;;6.33;100.00;96442.56;5040621;28;20037;-68
2023/11/07 05:15:03;;;;;;;1.73;1.30;;;;;;;6.35;100.00;96448.47;5040490;28;20040;-69
2023/11/07 05:17:29;;;;;;;2.55;1.40;;;;;;;6.41;100.00;96440.84;5036408;28;20145;-69
2023/11/07 05:19:54;;;;;;;4.55;1.73;;;;;;;6.48;100.00;96449.22;5040806;28;20128;-69
2023/11/07 05:22:20;;;;;;;4.15;1.65;;;;;;;6.50;100.00;96441.53;5033492;28;20045;-69
2023/11/07 05:24:45;;;;;;;5.57;2.00;;;;;;;6.44;100.00;96451.81;5039910;28;20115;-70
2023/11/07 05:27:11;;;;;;;3.22;1.50;;;;;;;6.45;100.00;96447.19;5020447;28;20048;-69
2023/11/07 05:29:36;;;;;;;7.63;2.75;;;;;;;6.64;100.00;96450.03;5040777;28;20045;-70
2023/11/07 05:32:02;;;;;;;2.08;1.35;;;;;;;6.66;100.00;96450.53;5039133;28;20047;-70
2023/11/07 05:34:28;;;;;;;6.93;3.55;;;;;;;6.73;100.00;96460.78;5036437;28;20120;-69
2023/11/07 05:36:53;;;;;;;5.25;2.00;;;;;;;6.73;100.00;96460.00;5028768;28;20048;-69
2023/11/07 05:39:19;;;;;;;3.08;1.50;;;;;;;6.72;100.00;96453.78;5017503;28;20044;-69
2023/11/07 05:41:44;;;;;;;1.80;1.30;;;;;;;6.79;100.00;96453.16;5040668;28;20041;-69
2023/11/07 05:44:10;;;;;;;4.68;1.40;;;;;;;6.74;100.00;96456.94;5032751;28;20061;-69
2023/11/07 05:46:36;;;;;;;2.88;1.42;;;;;;;6.75;100.00;96455.78;5039887;28;20045;-69
2023/11/07 05:49:01;;;;;;;1.92;1.20;;;;;;;6.74;100.00;96451.50;5053757;28;20041;-69
2023/11/07 05:51:27;;;;;;;2.78;2.08;;;;;;;6.69;100.00;96449.81;5019589;28;20049;-69
2023/11/07 05:53:52;;;;;;;2.55;1.45;;;;;;;6.70;100.00;96456.84;5040682;28;20094;-69
2023/11/07 05:56:18;;;;;;;2.15;1.23;;;;;;;6.72;100.00;96452.97;5034506;28;20045;-69
2023/11/07 05:58:44;;;;;;;5.57;2.67;;;;;;;6.76;100.00;96459.31;5041568;28;20129;-69
2023/11/07 06:01:09;;;;;;;4.53;1.90;;;;;;;6.85;100.00;96447.13;5038265;28;20495;-69
2023/11/07 06:03:34;;;;;;;6.63;2.10;;;;;;;6.83;100.00;96449.41;5045312;28;20462;-69
2023/11/07 06:06:00;;;;;;;12.98;2.00;;;;;;;6.78;100.00;96451.59;5047554;28;20110;-69
2023/11/07 06:08:25;;;;;;;4.47;1.65;;;;;;;6.83;100.00;96454.06;5037955;28;20064;-68
2023/11/07 06:10:51;;;;;;;5.57;1.55;;;;;;;6.72;100.00;96459.22;5044030;28;20123;-69
2023/11/07 06:13:17;;;;;;;2.05;1.48;;;;;;;6.62;100.00;96457.78;5038958;28;20090;-69
2023/11/07 06:15:43;;;;;;;6.70;1.80;;;;;;;6.62;100.00;96454.25;5031909;28;20562;-68
2023/11/07 06:18:09;;;;;;;2.97;1.50;;;;;;;6.59;100.00;96455.75;5038871;28;20041;-68
2023/11/07 06:20:34;;;;;;;14.98;5.85;;;;;;;6.53;100.00;96459.06;5042178;28;20510;-69
2023/11/07 06:23:00;;;;;;;5.43;2.35;;;;;;;6.37;100.00;96464.44;5025115;28;20041;-69
2023/11/07 06:25:25;;;;;;;6.70;1.70;;;;;;;6.40;100.00;96466.47;5038661;28;20045;-68
2023/11/07 06:27:51;;;;;;;5.85;2.08;;;;;;;6.39;100.00;96473.84;5043515;28;20045;-69
2023/11/07 06:30:17;;;;;;;2.40;1.50;;;;;;;6.39;100.00;96468.41;5037733;28;20056;-69
2023/11/07 06:32:44;;;;;;;6.43;1.60;;;;;;;6.34;100.00;96465.94;5042086;28;20400;-69
2023/11/07 06:35:10;;;;;;;4.75;2.00;;;;;;;6.36;100.00;96474.53;5038401;28;20098;-69
2023/11/07 06:37:36;;;;;;;2.90;1.73;;;;;;;6.40;100.00;96469.19;5041558;28;20550;-68
2023/11/07 06:40:04;;;;;;;3.90;2.65;;;;;;;6.25;100.00;96470.72;5042327;28;20127;-69
2023/11/07 06:42:30;;;;;;;4.82;2.50;;;;;;;6.09;100.00;96468.72;5043954;28;20041;-69
2023/11/07 06:44:56;;;;;;;5.47;2.25;;;;;;;6.05;100.00;96467.81;5043863;28;20495;-68
2023/11/07 06:47:22;;;;;;;3.83;1.95;;;;;;;6.06;100.00;96474.81;5023590;28;20244;-68
2023/11/07 06:49:49;;;;;;;5.95;1.75;;;;;;;6.03;100.00;96478.25;5047212;28;20041;-68
2023/11/07 06:52:14;;;;;;;3.47;1.88;;;;;;;6.00;100.00;96478.91;5047759;28;20069;-68
2023/11/07 06:54:40;;;;;;;5.20;2.13;;;;;;;6.01;100.00;96488.66;5031732;28;20044;-68
2023/11/07 06:57:08;;;;;;;4.28;1.77;;;;;;;6.01;100.00;96485.13;5040682;28;20041;-67
2023/11/07 06:59:33;;;;;;;5.72;2.75;;;;;;;5.98;100.00;96486.63;5043491;28;20084;-68
2023/11/07 07:02:00;;;;;;;5.45;2.10;;;;;;;6.11;100.00;96490.91;5042621;28;20049;-68
2023/11/07 07:04:25;;;;;;;5.00;1.80;;;;;;;6.25;100.00;96493.28;5028113;28;20464;-68
2023/11/07 07:06:51;;;;;;;6.90;1.70;;;;;;;6.38;100.00;96491.31;5043394;28;20072;-68
2023/11/07 07:09:18;;;;;;;3.95;1.58;;;;;;;6.67;100.00;96498.34;5039447;28;20033;-68
2023/11/07 07:11:44;;;;;;;3.40;1.50;;;;;;;6.92;100.00;96495.53;5041551;28;20042;-68
2023/11/07 07:14:10;;;;;;;3.22;1.60;;;;;;;6.96;100.00;96504.59;5038407;28;20055;-70
2023/11/07 07:16:37;;;;;;;3.42;1.40;;;;;;;7.11;100.00;96504.97;5042358;28;20044;-69
2023/11/07 07:19:07;;;;;;;4.28;1.40;;;;;;;7.27;100.00;96509.31;5040705;28;20052;-69
2023/11/07 07:21:35;;;;;;;2.70;1.10;;;;;;;7.40;100.00;96510.03;5041446;28;20048;-70
2023/11/07 07:24:15;;;;;;;3.38;1.10;;;;;;;7.62;100.00;96507.84;5041364;28;20068;-69
2023/11/07 07:26:46;;;;;;;1.80;1.25;;;;;;;7.82;100.00;96509.50;5034916;28;20049;-70
2023/11/07 07:29:15;;;;;;;3.15;1.33;;;;;;;8.04;100.00;96510.78;5035834;28;20049;-70
2023/11/07 07:31:41;;;;;;;5.90;1.00;;;;;;;8.26;100.00;96508.53;5036577;28;20711;-69
2023/11/07 07:34:08;;;;;;;4.00;1.25;;;;;;;8.33;100.00;96503.25;5036622;28;20040;-69
2023/11/07 07:36:43;;;;;;;4.03;1.27;;;;;;;8.48;100.00;96511.75;5042124;28;20132;-71
2023/11/07 07:39:29;;;;;;;4.68;1.38;;;;;;;8.42;100.00;96506.59;5037279;28;20071;-68
2023/11/07 07:42:00;;;;;;;2.90;1.02;;;;;;;8.48;100.00;96523.50;5035961;28;20109;-69
2023/11/07 07:44:26;;;;;;;2.53;1.20;;;;;;;8.57;100.00;96520.53;5037715;28;20650;-69
2023/11/07 07:46:56;;;;;;;2.65;1.30;;;;;;;8.57;100.00;96517.81;5041816;28;20123;-68
2023/11/07 07:49:25;;;;;;;2.80;1.38;;;;;;;8.64;100.00;96522.63;5029663;28;20882;-67
2023/11/07 07:51:54;;;;;;;3.80;1.42;;;;;;;8.95;100.00;96533.44;5041346;28;20132;-70
2023/11/07 07:54:22;;;;;;;5.43;1.63;;;;;;;9.10;100.00;96534.50;5038392;28;20056;-69
2023/11/07 07:56:53;;;;;;;3.83;1.30;;;;;;;9.04;100.00;96530.47;5057756;28;20106;-71
2023/11/07 07:59:25;;;;;;;4.25;1.77;;;;;;;9.38;100.00;96530.69;5036389;28;20044;-71
2023/11/07 08:01:57;;;;;;;3.85;1.10;;;;;;;9.57;100.00;96538.88;5054554;28;20041;-70
2023/11/07 08:04:24;;;;;;;2.58;0.98;;;;;;;9.36;100.00;96533.00;5036630;28;20125;-70
2023/11/07 08:06:50;;;;;;;3.30;1.17;;;;;;;9.27;100.00;96532.47;5042968;28;20148;-70
2023/11/07 08:09:18;;;;;;;6.50;1.25;;;;;;;9.06;100.00;96532.84;5042271;28;20037;-69
2023/11/07 08:11:50;;;;;;;2.92;1.10;;;;;;;9.09;100.00;96532.13;5045383;28;20503;-69
2023/11/07 08:14:16;;;;;;;5.40;1.48;;;;;;;9.70;100.00;96536.75;5037078;28;20052;-69
2023/11/07 08:16:42;;;;;;;2.92;1.13;;;;;;;10.55;100.00;96538.47;5034443;28;20386;-69
2023/11/07 08:19:12;;;;;;;8.88;1.77;;;;;;;11.33;97.88;96539.81;5035135;28;20049;-69
2023/11/07 08:21:39;;;;;;;4.80;1.10;;;;;;;11.86;91.43;96545.81;5032063;28;20041;-70
2023/11/07 08:24:08;;;;;;;5.22;1.90;;;;;;;12.56;88.49;96548.72;5037406;28;20037;-71
2023/11/07 08:26:36;;;;;;;4.40;2.43;;;;;;;12.80;82.64;96552.78;5030772;28;20057;-69
2023/11/07 08:29:06;;;;;;;3.35;1.05;;;;;;;12.84;80.63;96561.06;5039977;28;20040;-70
2023/11/07 08:31:38;;;;;;;3.58;1.70;;;;;;;13.71;76.75;96556.66;5038411;28;20041;-70
2023/11/07 08:34:09;;;;;;;3.13;1.33;;;;;;;12.98;73.04;96560.31;5034211;28;20049;-71
2023/11/07 08:36:38;;;;;;;2.95;1.20;;;;;;;13.28;72.30;96576.56;5041652;28;20138;-70
2023/11/07 08:39:19;;;;;;;6.68;1.65;;;;;;;13.96;70.20;96570.47;5038671;28;20072;-71
2023/11/07 08:41:47;;;;;;;3.22;1.20;;;;;;;13.85;67.95;96572.41;5042406;28;20053;-70
2023/11/07 08:44:12;;;;;;;2.22;1.05;;;;;;;13.53;68.45;96579.41;5036072;28;20056;-70
2023/11/07 08:46:38;;;;;;;3.22;0.88;;;;;;;13.98;68.26;96578.34;5040572;28;20068;-70
2023/11/07 08:49:04;;;;;;;2.25;0.90;;;;;;;14.26;65.43;96577.53;5044370;28;20072;-71
2023/11/07 08:51:29;;;;;;;2.83;0.90;;;;;;;14.38;63.62;96581.88;5038407;28;20118;-70
2023/11/07 08:53:56;;;;;;;2.63;0.90;;;;;;;13.24;66.32;96566.72;5040777;28;20119;-70
2023/11/07 08:56:24;;;;;;;3.63;1.27;;;;;;;14.00;66.80;96570.47;5037510;28;20127;-70
2023/11/07 08:58:50;;;;;;;2.15;0.70;;;;;;;13.45;66.37;96572.34;5040784;28;20128;-71
2023/11/07 09:01:16;;;;;;;1.30;0.75;;;;;;;13.18;66.55;96580.03;5032084;28;20045;-71
2023/11/07 09:03:42;;;;;;;4.15;1.08;;;;;;;13.42;68.09;96575.84;5043076;28;20039;-70
2023/11/07 09:06:08;;;;;;;1.52;0.70;;;;;;;13.25;68.62;96574.56;5036699;28;20044;-71
2023/11/07 09:08:33;;;;;;;4.93;0.88;;;;;;;13.56;68.46;96578.66;5040734;28;20049;-71
2023/11/07 09:10:59;;;;;;;3.30;1.17;;;;;;;14.51;64.53;96583.84;5046686;28;20040;-71
2023/11/07 09:13:27;;;;;;;4.80;0.70;;;;;;;14.27;61.18;96588.16;5036068;28;20052;-71
2023/11/07 09:15:53;;;;;;;2.25;0.80;;;;;;;14.22;62.60;96585.03;5041266;28;20041;-71
2023/11/07 09:18:19;;;;;;;1.05;0.60;;;;;;;14.07;61.76;96589.75;5037633;28;20037;-70
2023/11/07 09:20:45;;;;;;;1.27;0.70;;;;;;;13.70;63.88;96583.41;5042187;28;20483;-70
2023/11/07 09:23:11;;;;;;;2.67;0.88;;;;;;;14.50;60.95;96585.00;5019357;28;20526;-70
2023/11/07 09:25:37;;;;;;;2.10;0.70;;;;;;;13.71;62.13;96581.44;5032050;28;20071;-70
2023/11/07 09:28:03;;;;;;;3.78;0.80;;;;;;;13.99;61.76;96585.41;5038517;28;20496;-72
2023/11/07 09:30:29;;;;;;;5.25;0.88;;;;;;;13.32;65.04;96582.88;5022343;28;20055;-70
2023/11/07 09:32:56;;;;;;;3.72;0.90;;;;;;;13.35;65.14;96582.09;5033888;28;20057;-70
2023/11/07 09:35:23;;;;;;;3.25;1.27;;;;;;;13.51;65.82;96579.03;5028307;28;20957;-70
2023/11/07 09:37:49;;;;;;;1.60;0.88;;;;;;;13.15;65.61;96581.63;5043388;28;20099;-70
2023/11/07 09:40:19;;;;;;;4.10;1.10;;;;;;;13.26;67.53;96572.63;5038245;28;20037;-70
2023/11/07 09:42:48;;;;;;;2.58;0.77;;;;;;;12.92;67.81;96579.13;5041326;28;20391;-70
2023/11/07 09:45:19;;;;;;;4.67;0.70;;;;;;;12.87;68.86;96575.97;5040881;28;20098;-70
2023/11/07 09:47:49;;;;;;;2.88;0.88;;;;;;;12.81;71.00;96570.84;5025150;28;20283;-70
2023/11/07 09:50:17;;;;;;;4.03;1.90;;;;;;;13.14;70.11;96579.25;5038123;28;20140;-70
2023/11/07 09:52:50;;;;;;;4.28;1.52;;;;;;;13.57;64.33;96571.94;5042610;28;20132;-71
2023/11/07 09:55:19;;;;;;;3.45;1.00;;;;;;;14.35;62.07;96566.94;5037610;28;20124;-70
2023/11/07 09:57:56;;;;;;;1.77;0.70;;;;;;;14.41;59.49;96570.06;5043780;28;20494;-70
2023/11/07 10:00:25;;;;;;;1.75;0.88;;;;;;;14.44;60.29;96583.84;5026669;28;20055;-70
2023/11/07 10:02:50;;;;;;;4.37;0.97;;;;;;;14.52;57.13;96574.38;5043133;28;20036;-71
2023/11/07 10:05:19;;;;;;;3.15;1.23;;;;;;;14.24;59.17;96564.19;5026656;28;20296;-70
2023/11/07 10:07:49;;;;;;;2.65;0.80;;;;;;;14.37;57.30;96570.06;5035667;28;20415;-70
2023/11/07 10:10:16;;;;;;;3.20;0.63;;;;;;;13.31;60.47;96575.03;5038714;28;20431;-70
2023/11/07 10:12:43;;;;;;;7.95;0.80;;;;;;;13.65;60.99;96569.22;5046074;28;20045;-70
2023/11/07 10:15:19;;;;;;;4.13;1.10;;;;;;;13.90;60.47;96572.00;5034138;28;20032;-70
2023/11/07 10:17:58;;;;;;;1.85;0.70;;;;;;;13.94;59.80;96573.59;5044176;28;20040;-70
2023/11/07 10:20:24;;;;;;;3.03;0.82;;;;;;;14.12;60.27;96572.84;5041160;28;20323;-69
2023/11/07 10:22:50;;;;;;;1.52;0.80;;;;;;;13.44;62.36;96576.25;5044590;28;20087;-72
2023/11/07 10:25:35;;;;;;;3.65;0.93;;;;;;;13.62;61.55;96564.50;5038623;28;20487;-71
2023/11/07 10:28:05;;;;;;;2.70;0.95;;;;;;;14.13;61.42;96568.88;5033139;28;20041;-70
2023/11/07 10:30:35;;;;;;;1.83;0.60;;;;;;;13.76;60.32;96559.81;5019789;28;20049;-71
2023/11/07 10:33:01;;;;;;;1.75;0.80;;;;;;;13.35;62.91;96553.81;5033999;28;20504;-70
2023/11/07 10:35:27;;;;;;;6.50;3.90;;;;;;;13.67;62.54;96562.16;5036654;28;20045;-70
2023/11/07 10:37:52;;;;;;;2.92;1.75;;;;;;;13.55;63.24;96559.78;5033374;28;20033;-70
2023/11/07 10:40:18;;;;;;;1.08;0.70;;;;;;;13.88;61.01;96563.34;5031684;28;20043;-70
2023/11/07 10:42:47;;;;;;;1.65;0.77;;;;;;;14.09;59.37;96549.59;5043593;28;20095;-70
2023/11/07 10:45:32;;;;;;;1.25;0.60;;;;;;;14.14;57.36;96548.44;5036152;28;20127;-70
2023/11/07 10:48:19;;;;;;;2.20;0.68;;;;;;;14.14;58.07;96554.72;5023517;28;20049;-71
2023/11/07 10:51:15;;;;;;;1.95;0.50;;;;;;;14.09;58.05;96548.81;5027640;28;20055;-71
2023/11/07 10:53:42;;;;;;;4.32;0.77;;;;;;;13.76;58.99;96553.53;5039274;28;20041;-69
2023/11/07 10:56:12;;;;;;;1.55;0.60;;;;;;;13.35;59.80;96548.31;5025642;28;20037;-71
2023/11/07 10:58:44;;;;;;;3.03;0.70;;;;;;;13.05;59.99;96534.81;5048244;28;20059;-72
2023/11/07 11:01:11;;;;;;;1.42;0.70;;;;;;;13.60;60.64;96531.88;5030621;28;20040;-73
2023/11/07 11:03:39;;;;;;;3.15;0.80;;;;;;;13.65;60.45;96536.19;5055794;28;20045;-71
2023/11/07 11:06:06;;;;;;;4.70;0.70;;;;;;;14.19;58.99;96530.72;5036378;28;20052;-71
2023/11/07 11:08:34;;;;;;;7.82;2.35;;;;;;;13.92;59.06;96529.16;5040386;28;20041;-72
2023/11/07 11:11:03;;;;;;;2.85;0.85;;;;;;;14.10;57.92;96533.88;5039574;28;20553;-71
2023/11/07 11:13:29;;;;;;;4.22;1.30;;;;;;;13.85;59.93;96520.13;5036723;28;20049;-73
2023/11/07 11:15:57;;;;;;;2.13;0.88;;;;;;;13.58;60.64;96525.97;5045789;28;20041;-72
2023/11/07 11:18:31;;;;;;;2.50;0.70;;;;;;;14.22;58.77;96538.19;5030382;28;20671;-70
2023/11/07 11:21:09;;;;;;;3.20;1.00;;;;;;;14.07;58.22;96535.44;5040039;28;20099;-71
2023/11/07 11:23:53;;;;;;;2.40;0.57;;;;;;;14.42;56.75;96544.88;5039062;28;20084;-71
2023/11/07 11:26:32;;;;;;;2.08;0.70;;;;;;;14.18;57.04;96535.44;5035262;28;20048;-71
2023/11/07 11:28:57;;;;;;;1.97;0.80;;;;;;;14.57;55.64;96542.88;5036625;28;20080;-71
2023/11/07 11:31:24;;;;;;;1.00;0.60;;;;;;;14.54;57.51;96538.16;5043883;28;20400;-73
2023/11/07 11:34:20;;;;;;;2.80;0.73;;;;;;;14.29;56.73;96541.72;5042368;28;20041;-72